createdAt,value
2019-03-10T00:03:44.358Z,6.93
2019-03-10T00:07:45.392Z,6.27
2019-03-10T00:11:46.281Z,8.83
2019-03-10T00:15:47.166Z,7.53
2019-03-10T00:19:48.294Z,6.23
2019-03-10T00:23:49.153Z,5.57
2019-03-10T00:27:51.591Z,5.27
2019-03-10T00:31:52.569Z,6.63
2019-03-10T00:35:53.554Z,5.13
2019-03-10T00:40:04.107Z,5.47
2019-03-10T00:44:43.878Z,6.40
2019-03-10T00:49:03.949Z,7.33
2019-03-10T00:53:04.948Z,5.73
2019-03-10T00:57:06.030Z,6.77
2019-03-10T01:01:07.116Z,7.57
2019-03-10T01:05:08.223Z,7.60
2019-03-10T01:09:09.402Z,5.33
2019-03-10T01:13:10.379Z,6.43
2019-03-10T01:17:11.452Z,5.83
2019-03-10T01:21:12.312Z,4.87
2019-03-10T01:25:13.396Z,7.20
2019-03-10T01:29:14.362Z,5.60
2019-03-10T01:33:31.223Z,6.47
2019-03-10T01:37:32.108Z,5.87
2019-03-10T01:41:32.993Z,5.53
2019-03-10T01:45:34.074Z,6.67
2019-03-10T01:49:34.983Z,5.60
2019-03-10T01:53:35.860Z,6.53
2019-03-10T01:57:36.847Z,5.23
2019-03-10T02:01:37.823Z,5.93
2019-03-10T02:05:38.829Z,6.70
2019-03-10T02:09:39.695Z,6.50
2019-03-10T02:13:40.693Z,5.97
2019-03-10T02:17:41.664Z,6.80
2019-03-10T02:21:42.647Z,5.90
2019-03-10T02:25:43.508Z,10.20
2019-03-10T02:29:44.393Z,5.77
2019-03-10T02:33:45.314Z,6.20
2019-03-10T02:37:46.365Z,7.17
2019-03-10T02:41:47.280Z,5.23
2019-03-10T02:45:48.153Z,7.27
2019-03-10T02:49:49.159Z,5.67
2019-03-10T02:53:50.033Z,6.07
2019-03-10T02:57:50.923Z,5.90
2019-03-10T03:01:51.830Z,8.53
2019-03-10T03:05:52.828Z,6.17
2019-03-10T03:09:53.780Z,6.87
2019-03-10T03:13:54.668Z,6.70
2019-03-10T03:17:55.570Z,6.80
2019-03-10T03:21:56.564Z,7.47
2019-03-10T03:25:57.436Z,8.93
2019-03-10T03:29:58.390Z,6.90
2019-03-10T03:33:59.264Z,5.60
2019-03-10T03:38:00.126Z,6.00
2019-03-10T03:42:01.084Z,6.37
2019-03-10T03:46:02.121Z,6.13
2019-03-10T03:50:04.012Z,7.03
2019-03-10T03:54:04.984Z,8.20
2019-03-10T03:58:05.861Z,8.23
2019-03-10T04:02:08.654Z,6.63
2019-03-10T04:06:09.543Z,8.07
2019-03-10T04:10:10.619Z,7.33
2019-03-10T04:14:11.494Z,7.20
2019-03-10T04:18:12.344Z,6.00
2019-03-10T04:22:13.202Z,8.57
2019-03-10T04:26:14.102Z,7.67
2019-03-10T04:30:15.186Z,8.77
2019-03-10T04:34:16.145Z,9.07
2019-03-10T04:38:17.024Z,6.37
2019-03-10T04:42:17.982Z,7.20
2019-03-10T04:46:18.852Z,6.60
2019-03-10T04:50:19.731Z,7.17
2019-03-10T04:54:22.492Z,7.80
2019-03-10T04:58:24.892Z,6.13
2019-03-10T05:02:26.553Z,6.67
2019-03-10T05:06:27.537Z,6.87
2019-03-10T05:10:28.538Z,10.07
2019-03-10T05:14:29.431Z,9.43
2019-03-10T05:18:30.290Z,7.73
2019-03-10T05:22:31.186Z,10.03
2019-03-10T05:26:32.138Z,7.50
2019-03-10T05:30:33.007Z,9.27
2019-03-10T05:34:33.925Z,9.17
2019-03-10T05:38:34.892Z,10.30
2019-03-10T05:42:35.767Z,8.07
2019-03-10T05:46:36.670Z,8.83
2019-03-10T05:50:37.530Z,10.70
2019-03-10T05:54:38.430Z,8.87
2019-03-10T05:58:39.403Z,8.73
2019-03-10T06:02:40.276Z,9.10
2019-03-10T06:06:41.265Z,10.23
2019-03-10T06:10:42.229Z,8.97
2019-03-10T06:14:43.168Z,11.20
2019-03-10T06:18:44.082Z,11.43
2019-03-10T06:22:45.103Z,9.63
2019-03-10T06:26:46.022Z,10.50
2019-03-10T06:30:46.916Z,10.50
2019-03-10T06:34:47.881Z,8.90
2019-03-10T06:38:48.886Z,10.40
2019-03-10T06:42:49.867Z,9.70
2019-03-10T06:46:50.735Z,7.77
2019-03-10T06:50:51.616Z,7.27
2019-03-10T06:54:52.496Z,7.93
2019-03-10T06:58:53.384Z,6.87
2019-03-10T07:02:54.238Z,9.23
2019-03-10T07:06:55.266Z,8.60
2019-03-10T07:10:56.166Z,8.03
2019-03-10T07:14:57.040Z,5.17
2019-03-10T07:18:58.040Z,3.70
2019-03-10T07:22:59.571Z,3.90
2019-03-10T07:27:02.192Z,2.30
2019-03-10T07:31:05.177Z,1.00
2019-03-10T07:35:08.063Z,0.93
2019-03-10T07:39:27.745Z,1.23
2019-03-10T07:43:30.547Z,1.07
2019-03-10T07:47:36.100Z,1.20
2019-03-10T07:51:38.964Z,1.10
2019-03-10T07:55:44.849Z,0.80
2019-03-10T08:00:04.206Z,0.70
2019-03-10T08:04:07.135Z,0.60
2019-03-10T08:08:18.996Z,0.80
2019-03-10T08:12:24.742Z,0.70
2019-03-10T08:16:44.529Z,0.90
2019-03-10T08:20:50.181Z,0.70
2019-03-10T08:24:52.963Z,0.57
2019-03-10T08:29:12.351Z,0.90
2019-03-10T08:33:15.231Z,0.60
2019-03-10T08:37:36.450Z,0.63
2019-03-10T08:41:51.245Z,0.50
2019-03-10T08:45:56.765Z,0.60
2019-03-10T08:50:05.538Z,0.70
2019-03-10T08:54:08.366Z,0.53
2019-03-10T08:58:13.706Z,0.60
2019-03-10T09:02:16.499Z,0.47
2019-03-10T09:06:19.436Z,0.80
2019-03-10T09:10:38.985Z,0.40
2019-03-10T09:14:47.811Z,0.80
2019-03-10T09:18:53.824Z,0.50
2019-03-10T09:22:56.676Z,0.70
2019-03-10T09:27:05.361Z,0.70
2019-03-10T09:31:20.132Z,0.50
2019-03-10T09:35:25.717Z,0.57
2019-03-10T09:39:28.634Z,0.50
2019-03-10T09:43:34.159Z,0.40
2019-03-10T09:47:55.349Z,0.40
2019-03-10T09:52:14.913Z,0.50
2019-03-10T09:56:26.784Z,0.40
2019-03-10T10:00:29.791Z,0.50
2019-03-10T10:04:41.625Z,0.60
2019-03-10T10:08:50.508Z,0.43
2019-03-10T10:12:59.194Z,0.60
2019-03-10T10:17:13.943Z,0.30
2019-03-10T10:21:34.886Z,0.50
2019-03-10T10:25:43.684Z,0.47
2019-03-10T10:30:04.423Z,0.40
2019-03-10T10:34:10.265Z,0.50
2019-03-10T10:38:29.951Z,0.60
2019-03-10T10:42:35.575Z,0.60
2019-03-10T10:46:41.328Z,0.77
2019-03-10T10:50:50.123Z,0.50
2019-03-10T10:54:58.879Z,0.70
2019-03-10T10:59:01.883Z,0.63
2019-03-10T11:03:16.876Z,0.70
2019-03-10T11:07:34.968Z,1.07
2019-03-10T11:11:43.790Z,0.87
2019-03-10T11:15:49.743Z,1.50
2019-03-10T11:20:09.059Z,1.03
2019-03-10T11:24:12.093Z,0.70
2019-03-10T11:28:17.875Z,1.53
2019-03-10T11:32:39.083Z,1.47
2019-03-10T11:36:42.128Z,2.00
2019-03-10T11:41:01.516Z,2.37
2019-03-10T11:45:23.770Z,1.13
2019-03-10T11:49:41.532Z,1.20
2019-03-10T11:53:56.385Z,1.80
2019-03-10T11:58:02.351Z,1.17
2019-03-10T12:02:15.882Z,1.23
2019-03-10T12:06:15.713Z,1.67
2019-03-10T12:10:16.806Z,1.30
2019-03-10T12:14:18.302Z,1.30
2019-03-10T12:18:19.195Z,1.57
2019-03-10T12:22:20.194Z,1.13
2019-03-10T12:26:21.174Z,1.50
2019-03-10T12:30:22.222Z,1.60
2019-03-10T12:34:23.118Z,2.17
2019-03-10T12:38:24.039Z,1.97
2019-03-10T12:42:24.904Z,1.70
2019-03-10T12:46:25.985Z,1.90
2019-03-10T12:50:26.852Z,1.33
2019-03-10T12:54:27.846Z,1.53
2019-03-10T12:58:29.483Z,1.60
2019-03-10T13:02:30.488Z,2.37
2019-03-10T13:06:31.454Z,1.90
2019-03-10T13:10:32.359Z,2.73
2019-03-10T13:14:33.255Z,2.10
2019-03-10T13:18:34.149Z,1.50
2019-03-10T13:22:35.172Z,2.47
2019-03-10T13:26:36.133Z,1.60
2019-03-10T13:30:37.240Z,2.83
2019-03-10T13:34:38.132Z,2.23
2019-03-10T13:38:39.029Z,3.27
2019-03-10T13:42:39.987Z,3.03
2019-03-10T13:46:43.700Z,2.70
2019-03-10T13:50:43.857Z,2.30
2019-03-10T13:54:44.873Z,2.13
2019-03-10T13:58:45.823Z,3.30
2019-03-10T14:02:46.718Z,2.53
2019-03-10T14:06:47.653Z,3.47
2019-03-10T14:10:48.671Z,3.13
2019-03-10T14:14:49.872Z,2.87
2019-03-10T14:18:50.786Z,2.37
2019-03-10T14:22:51.771Z,2.93
2019-03-10T14:26:52.753Z,3.17
2019-03-10T14:30:53.826Z,2.73
2019-03-10T14:34:54.700Z,2.33
2019-03-10T14:38:55.660Z,2.20
2019-03-10T14:42:56.766Z,3.47
2019-03-10T14:46:57.769Z,2.93
2019-03-10T14:50:58.739Z,1.90
2019-03-10T14:54:59.622Z,2.57
2019-03-10T14:59:00.544Z,2.60
2019-03-10T15:03:01.458Z,1.50
2019-03-10T15:07:03.259Z,2.37
2019-03-10T15:11:04.923Z,2.20
2019-03-10T15:15:09.508Z,1.83
2019-03-10T15:19:12.139Z,1.60
2019-03-10T15:23:13.453Z,1.40
2019-03-10T15:27:23.016Z,1.33
2019-03-10T15:31:17.238Z,1.20
2019-03-10T15:35:18.431Z,1.90
2019-03-10T15:39:19.612Z,2.00
2019-03-10T15:43:20.548Z,1.70
2019-03-10T15:47:21.485Z,1.50
2019-03-10T15:51:22.548Z,2.13
2019-03-10T15:55:23.814Z,2.97
2019-03-10T15:59:24.890Z,1.73
2019-03-10T16:03:25.993Z,2.37
2019-03-10T16:07:26.896Z,2.00
2019-03-10T16:11:27.769Z,1.93
2019-03-10T16:15:29.657Z,1.60
2019-03-10T16:19:30.561Z,3.23
2019-03-10T16:23:31.559Z,2.80
2019-03-10T16:27:32.465Z,2.67
2019-03-10T16:31:33.366Z,2.83
2019-03-10T16:35:34.277Z,1.60
2019-03-10T16:39:35.252Z,1.30
2019-03-10T16:43:36.357Z,1.40
2019-03-10T16:47:37.299Z,1.37
2019-03-10T16:51:38.298Z,1.10
2019-03-10T16:55:39.247Z,1.70
2019-03-10T16:59:40.225Z,1.70
2019-03-10T17:03:41.163Z,1.70
2019-03-10T17:07:42.461Z,1.83
2019-03-10T17:11:43.421Z,1.43
2019-03-10T17:15:44.393Z,1.30
2019-03-10T17:19:45.302Z,1.47
2019-03-10T17:23:48.991Z,1.40
2019-03-10T17:27:50.725Z,1.23
2019-03-10T17:31:51.805Z,2.40
2019-03-10T17:35:52.886Z,2.30
2019-03-10T17:39:54.165Z,1.10
2019-03-10T17:43:55.047Z,1.60
2019-03-10T17:47:56.077Z,1.27
2019-03-10T17:51:57.196Z,4.60
2019-03-10T17:55:59.459Z,1.62
2019-03-10T18:00:00.408Z,1.50
2019-03-10T18:04:03.579Z,5.80
2019-03-10T18:08:04.723Z,1.90
2019-03-10T18:12:05.820Z,2.60
2019-03-10T18:16:06.765Z,1.50
2019-03-10T18:20:21.430Z,1.80
2019-03-10T18:24:22.440Z,1.60
2019-03-10T18:28:23.401Z,1.53
2019-03-10T18:32:24.335Z,1.43
2019-03-10T18:36:25.311Z,1.43
2019-03-10T18:40:27.603Z,1.67
2019-03-10T18:44:28.509Z,3.13
2019-03-10T18:48:29.578Z,3.53
2019-03-10T18:52:30.551Z,1.47
2019-03-10T18:56:31.592Z,1.60
2019-03-10T19:00:32.771Z,1.30
2019-03-10T19:04:33.700Z,1.63
2019-03-10T19:08:34.647Z,2.17
2019-03-10T19:12:35.569Z,3.60
2019-03-10T19:16:36.870Z,2.47
2019-03-10T19:20:38.351Z,1.93
2019-03-10T19:24:39.331Z,2.20
2019-03-10T19:28:40.307Z,1.93
2019-03-10T19:32:41.220Z,1.90
2019-03-10T19:36:42.231Z,1.90
2019-03-10T19:40:43.244Z,2.37
2019-03-10T19:44:44.158Z,2.37
2019-03-10T19:48:45.570Z,2.80
2019-03-10T19:52:46.660Z,2.03
2019-03-10T19:56:47.534Z,2.57
2019-03-10T20:00:48.520Z,2.47
2019-03-10T20:04:49.403Z,2.33
2019-03-10T20:08:50.581Z,1.97
2019-03-10T20:12:51.534Z,1.90
2019-03-10T20:16:52.429Z,1.93
2019-03-10T20:20:53.565Z,2.43
2019-03-10T20:24:54.648Z,2.13
2019-03-10T20:28:56.286Z,2.70
2019-03-10T20:32:57.361Z,2.50
2019-03-10T20:36:58.531Z,1.63
2019-03-10T20:40:59.576Z,2.27
2019-03-10T20:45:00.583Z,1.90
2019-03-10T20:49:01.443Z,1.63
2019-03-10T20:53:06.794Z,2.70
2019-03-10T20:57:07.921Z,1.83
2019-03-10T21:01:09.003Z,2.50
2019-03-10T21:05:11.265Z,2.03
2019-03-10T21:09:12.368Z,1.47
2019-03-10T21:13:13.377Z,2.03
2019-03-10T21:17:14.388Z,1.57
2019-03-10T21:21:15.609Z,1.17
2019-03-10T21:25:30.572Z,2.80
2019-03-10T21:29:32.085Z,1.33
2019-03-10T21:33:33.154Z,2.00
2019-03-10T21:37:34.079Z,1.93
2019-03-10T21:41:35.253Z,1.80
2019-03-10T21:45:36.130Z,1.40
2019-03-10T21:49:37.015Z,1.93
2019-03-10T21:53:37.903Z,1.80
2019-03-10T21:57:40.210Z,2.10
2019-03-10T22:01:41.155Z,1.67
2019-03-10T22:05:42.041Z,1.70
2019-03-10T22:09:42.985Z,2.10
2019-03-10T22:13:46.872Z,1.80
2019-03-10T22:17:46.773Z,2.70
2019-03-10T22:21:47.670Z,2.50
2019-03-10T22:25:48.585Z,2.23
2019-03-10T22:29:49.481Z,2.30
2019-03-10T22:33:50.374Z,3.67
2019-03-10T22:37:51.298Z,2.07
2019-03-10T22:41:52.169Z,2.27
2019-03-10T22:45:53.151Z,2.67
2019-03-10T22:49:54.043Z,1.80
2019-03-10T22:53:54.975Z,2.30
2019-03-10T22:57:55.838Z,1.63
2019-03-10T23:01:56.888Z,1.43
2019-03-10T23:05:58.185Z,1.23
2019-03-10T23:10:00.532Z,1.80
2019-03-10T23:14:01.932Z,1.87
2019-03-10T23:18:03.255Z,2.37
2019-03-10T23:22:04.440Z,2.40
2019-03-10T23:26:05.399Z,2.90
2019-03-10T23:30:21.713Z,3.77
2019-03-10T23:34:21.315Z,3.83
2019-03-10T23:38:23.562Z,3.10
2019-03-10T23:42:25.126Z,3.30
2019-03-10T23:46:26.458Z,4.60
2019-03-10T23:50:27.458Z,3.07
2019-03-10T23:54:28.312Z,3.50
2019-03-10T23:58:29.255Z,3.67
